Grande Portogallo — IBZW — position and weather

sailwx.info

Track history (hours):
 
Tides and Currents Weather Stations Pressure Air Temp Water Temp Dewpoint Dewpoint Depression Visibility Wind Speed Wind Dir Waves Ship Positions

Grande Portogallo

Last reported at 2015-Apr-18 04:33 UTC. Time now 2015-Apr-18 04:58 UTC.
Position N 50°29' W 000°04'.

Length 176 m; draft 8.3 m.

Type: Cargo ship. MMSI: 247065500.

Date/timePositionNaut miles runAvg speedWind from/ knotsBaromVisibWave heightAir tempDewpointWater temp
2015-Apr-18 04:33N 50°29' W 000°04'1616.2
2015-Apr-18 03:33N 50°34' E 000°20'1616.0
2015-Apr-18 02:33N 50°41' E 000°42'2115.2
2015-Apr-18 01:11N 50°54' E 001°08'913.7
2015-Apr-18 00:33N 50°60' E 001°18'1212.4
2015-Apr-17 23:33N 51°07' E 001°34'1212.2
2015-Apr-17 22:33N 51°17' E 001°46'1312.6
2015-Apr-17 21:34N 51°25' E 002°01'1413.6
2015-Apr-17 20:33N 51°21' E 002°22'1414.4
2015-Apr-17 19:34N 51°21' E 002°45'1615.8
2015-Apr-17 18:34N 51°24' E 003°10'1717.3
2015-Apr-17 17:33N 51°26' E 003°38'1212.5
2015-Apr-17 16:33N 51°24' E 003°57'1211.6
2015-Apr-17 15:33N 51°21' E 004°15'5 5.3
2015-Apr-17 14:33N 51°16' E 004°17'2 2.3
2015-Apr-17 13:33N 51°17' E 004°13'1 0.6
2015-Apr-17 12:22N 51°16' E 004°13'0 0.0
2015-Apr-17 11:25N 51°16' E 004°13'0 0.0
2015-Apr-17 10:31N 51°16' E 004°13'0 0.0
2015-Apr-17 09:31N 51°16' E 004°13'0 0.0
2015-Apr-17 08:28N 51°16' E 004°13'0 0.0
2015-Apr-17 07:28N 51°16' E 004°13'0 0.0
2015-Apr-17 06:31N 51°16' E 004°13'0 0.0
2015-Apr-17 05:31N 51°16' E 004°13'0 0.0
2015-Apr-17 04:28N 51°16' E 004°13'0 0.0
2015-Apr-17 03:28N 51°16' E 004°13'0 0.0
2015-Apr-17 02:28N 51°16' E 004°13'0 0.0
2015-Apr-17 01:28N 51°16' E 004°13'0 0.0
2015-Apr-17 00:25N 51°16' E 004°13'0 0.0
2015-Apr-16 23:31N 51°16' E 004°13'0 0.0
2015-Apr-16 22:28N 51°16' E 004°13'0 0.0
2015-Apr-16 21:31N 51°16' E 004°13'0 0.0
2015-Apr-16 20:31N 51°16' E 004°13'0 0.0
2015-Apr-16 19:31N 51°16' E 004°13'0 0.0
2015-Apr-16 18:25N 51°16' E 004°13'0 0.0
2015-Apr-16 17:31N 51°16' E 004°13'0 0.0
2015-Apr-16 16:22N 51°16' E 004°13'0 0.0
2015-Apr-16 15:28N 51°16' E 004°13'0 0.0
2015-Apr-16 14:28N 51°16' E 004°13'0 0.0
2015-Apr-16 13:28N 51°16' E 004°13'0 0.0
2015-Apr-16 12:22N 51°16' E 004°13'0 0.0
2015-Apr-16 11:28N 51°16' E 004°13'0 0.0
2015-Apr-16 10:28N 51°16' E 004°13'0 0.0
2015-Apr-16 09:34N 51°16' E 004°13'2 2.5
2015-Apr-16 08:33N 51°16' E 004°17'1 0.6
2015-Apr-16 07:34N 51°16' E 004°17'5 4.6
2015-Apr-16 06:34N 51°20' E 004°16'9 8.7
2015-Apr-16 05:33N 51°23' E 004°03'6 6.5
2015-Apr-16 04:33N 51°21' E 003°53'1010.4
2015-Apr-16 03:33N 51°26' E 003°38'9 9.5
2015-Apr-16 02:33N 51°25' E 003°23'1515.0
2015-Apr-16 01:33N 51°23' E 002°59'1312.0
2015-Apr-16 00:29N 51°22' E 002°39'4 4.6
2015-Apr-15 23:33N 51°22' E 002°32'5 4.6
2015-Apr-15 22:32N 51°20' E 002°25'1212.5
2015-Apr-15 21:33N 51°14' E 002°08'1616.4
2015-Apr-15 20:33N 51°06' E 001°45'1717.4
2015-Apr-15 19:34N 50°52' E 001°28'1817.4
2015-Apr-15 18:33N 50°37' E 001°15'1818.3
2015-Apr-15 17:33N 50°28' E 000°50'4217.7
2015-Apr-15 15:11N 50°26' W 000°16'1117.8
2015-Apr-15 14:34N 50°30' W 000°31'1717.2
2015-Apr-15 13:34N 50°39' W 000°55'1313.1
2015-Apr-15 12:33N 50°46' W 001°13'1110.5
2015-Apr-15 11:33N 50°53' W 001°24'1 0.4
2015-Apr-15 08:33N 50°54' W 001°26'0 0.0
2015-Apr-15 07:30N 50°54' W 001°26'0 0.0
2015-Apr-15 06:24N 50°54' W 001°26'0 0.0
2015-Apr-15 05:30N 50°54' W 001°26'0 0.0
2015-Apr-15 03:27N 50°54' W 001°26'0 0.0
2015-Apr-15 02:30N 50°54' W 001°26'0 0.0
2015-Apr-15 01:03N 50°54' W 001°26'0 0.0
2015-Apr-14 23:30N 50°54' W 001°26'0 0.0
2015-Apr-14 22:24N 50°54' W 001°26'0 0.4
2015-Apr-14 21:33N 50°54' W 001°25'7 7.1
2015-Apr-14 20:33N 50°49' W 001°18'1010.4
2015-Apr-14 19:33N 50°44' W 001°03'9 9.2
2015-Apr-14 18:33N 50°35' W 000°58'5 5.2
2015-Apr-14 17:33N 50°32' W 001°04'7 7.2
2015-Apr-14 16:33N 50°30' W 001°15'9 8.7
2015-Apr-14 15:33N 50°28' W 001°28'9 9.2
2015-Apr-14 14:33N 50°25' W 001°42'1211.9
2015-Apr-14 13:33N 50°22' W 002°00'1616.0
2015-Apr-14 12:33N 50°17' W 002°24'1515.3
2015-Apr-14 11:33N 50°12' W 002°47'1515.1
2015-Apr-14 10:33N 50°08' W 003°09'1716.6
2015-Apr-14 09:33N 50°03' W 003°34'70016.3
2015-Apr-12 14:33N 39°17' W 009°51'1717.2
2015-Apr-12 13:33N 38°60' W 009°50'1717.1
2015-Apr-12 12:33N 38°42' W 009°50'1717.2
2015-Apr-12 11:33N 38°26' W 009°46'2217.2
2015-Apr-12 10:18N 38°04' W 009°41'1317.0
2015-Apr-12 09:33N 37°52' W 009°38'8015.8
2015-Apr-12 04:28N 36°41' W 008°52'1617.6
2015-Apr-12 03:34N 36°36' W 008°33'14717.5
2015-Apr-11 19:07N 35°58' W 005°36'1017.3
2015-Apr-11 18:34N 36°00' W 005°24'21717.7
2015-Apr-11 06:18N 37°10' W 001°09'1317.4
2015-Apr-11 05:33N 37°19' W 000°57'1818.2
2015-Apr-11 04:33N 37°31' W 000°39'1817.9
2015-Apr-11 03:34N 37°45' W 000°26'1918.4
2015-Apr-11 02:33N 38°00' W 000°13'1818.5
2015-Apr-11 01:33N 38°16' E 000°00'1918.0
2015-Apr-11 00:31N 38°31' E 000°13'2115.5
2015-Apr-10 23:09N 38°52' E 000°16'1118.2
2015-Apr-10 22:33N 39°01' E 000°08'3216.2
2015-Apr-10 20:33N 39°26' W 000°18'0 0.0
2015-Apr-10 19:31N 39°26' W 000°18'0 0.0
2015-Apr-10 18:31N 39°26' W 000°18'0 0.0
2015-Apr-10 17:31N 39°26' W 000°18'0 0.0
2015-Apr-10 16:31N 39°26' W 000°18'0 0.0
2015-Apr-10 15:31N 39°26' W 000°18'0 0.0
2015-Apr-10 14:31N 39°26' W 000°18'0 0.0
2015-Apr-10 13:31N 39°26' W 000°18'0 0.0
2015-Apr-10 12:31N 39°26' W 000°18'0 0.0
2015-Apr-10 11:31N 39°26' W 000°18'0 0.0
2015-Apr-10 10:31N 39°26' W 000°18'0 0.0
2015-Apr-10 09:31N 39°26' W 000°18'0 0.0
2015-Apr-10 08:31N 39°26' W 000°18'0 0.0
2015-Apr-10 07:31N 39°26' W 000°18'0 0.0
2015-Apr-10 06:31N 39°26' W 000°18'0 0.0
2015-Apr-10 05:31N 39°26' W 000°18'0 0.0
2015-Apr-10 04:25N 39°26' W 000°18'0 0.0
2015-Apr-10 03:31N 39°26' W 000°18'0 0.2
2015-Apr-10 02:33N 39°26' W 000°18'7515.0
2015-Apr-09 21:33N 39°13' E 001°18'1515.4
2015-Apr-09 20:33N 39°11' E 001°37'1515.0
2015-Apr-09 19:33N 39°06' E 001°55'3 3.3
2015-Apr-09 18:33N 39°09' E 001°55'1616.0
2015-Apr-09 17:33N 39°07' E 002°16'1616.3
2015-Apr-09 16:33N 39°04' E 002°36'1616.2
2015-Apr-09 15:33N 39°01' E 002°57'1616.1
2015-Apr-09 14:34N 38°57' E 003°17'  
Track history (hours):
 
Tides and Currents Weather Stations Pressure Air Temp Water Temp Dewpoint Dewpoint Depression Visibility Wind Speed Wind Dir Waves Ship Positions

Grande Portogallo

Last reported at 2015-Apr-18 04:33 UTC. Time now 2015-Apr-18 04:58 UTC.
Position N 50°29' W 000°04'.

Length 176 m; draft 8.3 m.

Type: Cargo ship. MMSI: 247065500.

Date/timePositionNaut miles runAvg speedWind from/ knotsBaromVisibWave heightAir tempDewpointWater temp
2015-Apr-18 04:33N 50°29' W 000°04'1616.2
2015-Apr-18 03:33N 50°34' E 000°20'1616.0
2015-Apr-18 02:33N 50°41' E 000°42'2115.2
2015-Apr-18 01:11N 50°54' E 001°08'913.7
2015-Apr-18 00:33N 50°60' E 001°18'1212.4
2015-Apr-17 23:33N 51°07' E 001°34'1212.2
2015-Apr-17 22:33N 51°17' E 001°46'1312.6
2015-Apr-17 21:34N 51°25' E 002°01'1413.6
2015-Apr-17 20:33N 51°21' E 002°22'1414.4
2015-Apr-17 19:34N 51°21' E 002°45'1615.8
2015-Apr-17 18:34N 51°24' E 003°10'1717.3
2015-Apr-17 17:33N 51°26' E 003°38'1212.5
2015-Apr-17 16:33N 51°24' E 003°57'1211.6
2015-Apr-17 15:33N 51°21' E 004°15'5 5.3
2015-Apr-17 14:33N 51°16' E 004°17'2 2.3
2015-Apr-17 13:33N 51°17' E 004°13'1 0.6
2015-Apr-17 12:22N 51°16' E 004°13'0 0.0
2015-Apr-17 11:25N 51°16' E 004°13'0 0.0
2015-Apr-17 10:31N 51°16' E 004°13'0 0.0
2015-Apr-17 09:31N 51°16' E 004°13'0 0.0
2015-Apr-17 08:28N 51°16' E 004°13'0 0.0
2015-Apr-17 07:28N 51°16' E 004°13'0 0.0
2015-Apr-17 06:31N 51°16' E 004°13'0 0.0
2015-Apr-17 05:31N 51°16' E 004°13'0 0.0
2015-Apr-17 04:28N 51°16' E 004°13'0 0.0
2015-Apr-17 03:28N 51°16' E 004°13'0 0.0
2015-Apr-17 02:28N 51°16' E 004°13'0 0.0
2015-Apr-17 01:28N 51°16' E 004°13'0 0.0
2015-Apr-17 00:25N 51°16' E 004°13'0 0.0
2015-Apr-16 23:31N 51°16' E 004°13'0 0.0
2015-Apr-16 22:28N 51°16' E 004°13'0 0.0
2015-Apr-16 21:31N 51°16' E 004°13'0 0.0
2015-Apr-16 20:31N 51°16' E 004°13'0 0.0
2015-Apr-16 19:31N 51°16' E 004°13'0 0.0
2015-Apr-16 18:25N 51°16' E 004°13'0 0.0
2015-Apr-16 17:31N 51°16' E 004°13'0 0.0
2015-Apr-16 16:22N 51°16' E 004°13'0 0.0
2015-Apr-16 15:28N 51°16' E 004°13'0 0.0
2015-Apr-16 14:28N 51°16' E 004°13'0 0.0
2015-Apr-16 13:28N 51°16' E 004°13'0 0.0
2015-Apr-16 12:22N 51°16' E 004°13'0 0.0
2015-Apr-16 11:28N 51°16' E 004°13'0 0.0
2015-Apr-16 10:28N 51°16' E 004°13'0 0.0
2015-Apr-16 09:34N 51°16' E 004°13'2 2.5
2015-Apr-16 08:33N 51°16' E 004°17'1 0.6
2015-Apr-16 07:34N 51°16' E 004°17'5 4.6
2015-Apr-16 06:34N 51°20' E 004°16'9 8.7
2015-Apr-16 05:33N 51°23' E 004°03'6 6.5
2015-Apr-16 04:33N 51°21' E 003°53'1010.4
2015-Apr-16 03:33N 51°26' E 003°38'9 9.5
2015-Apr-16 02:33N 51°25' E 003°23'1515.0
2015-Apr-16 01:33N 51°23' E 002°59'1312.0
2015-Apr-16 00:29N 51°22' E 002°39'4 4.6
2015-Apr-15 23:33N 51°22' E 002°32'5 4.6
2015-Apr-15 22:32N 51°20' E 002°25'1212.5
2015-Apr-15 21:33N 51°14' E 002°08'1616.4
2015-Apr-15 20:33N 51°06' E 001°45'1717.4
2015-Apr-15 19:34N 50°52' E 001°28'1817.4
2015-Apr-15 18:33N 50°37' E 001°15'1818.3
2015-Apr-15 17:33N 50°28' E 000°50'4217.7
2015-Apr-15 15:11N 50°26' W 000°16'1117.8
2015-Apr-15 14:34N 50°30' W 000°31'1717.2
2015-Apr-15 13:34N 50°39' W 000°55'1313.1
2015-Apr-15 12:33N 50°46' W 001°13'1110.5
2015-Apr-15 11:33N 50°53' W 001°24'1 0.4
2015-Apr-15 08:33N 50°54' W 001°26'0 0.0
2015-Apr-15 07:30N 50°54' W 001°26'0 0.0
2015-Apr-15 06:24N 50°54' W 001°26'0 0.0
2015-Apr-15 05:30N 50°54' W 001°26'0 0.0
2015-Apr-15 03:27N 50°54' W 001°26'0 0.0
2015-Apr-15 02:30N 50°54' W 001°26'0 0.0
2015-Apr-15 01:03N 50°54' W 001°26'0 0.0
2015-Apr-14 23:30N 50°54' W 001°26'0 0.0
2015-Apr-14 22:24N 50°54' W 001°26'0 0.4
2015-Apr-14 21:33N 50°54' W 001°25'7 7.1
2015-Apr-14 20:33N 50°49' W 001°18'1010.4
2015-Apr-14 19:33N 50°44' W 001°03'9 9.2
2015-Apr-14 18:33N 50°35' W 000°58'5 5.2
2015-Apr-14 17:33N 50°32' W 001°04'7 7.2
2015-Apr-14 16:33N 50°30' W 001°15'9 8.7
2015-Apr-14 15:33N 50°28' W 001°28'9 9.2
2015-Apr-14 14:33N 50°25' W 001°42'1211.9
2015-Apr-14 13:33N 50°22' W 002°00'1616.0
2015-Apr-14 12:33N 50°17' W 002°24'1515.3
2015-Apr-14 11:33N 50°12' W 002°47'1515.1
2015-Apr-14 10:33N 50°08' W 003°09'1716.6
2015-Apr-14 09:33N 50°03' W 003°34'70016.3
2015-Apr-12 14:33N 39°17' W 009°51'1717.2
2015-Apr-12 13:33N 38°60' W 009°50'1717.1
2015-Apr-12 12:33N 38°42' W 009°50'1717.2
2015-Apr-12 11:33N 38°26' W 009°46'2217.2
2015-Apr-12 10:18N 38°04' W 009°41'1317.0
2015-Apr-12 09:33N 37°52' W 009°38'8015.8
2015-Apr-12 04:28N 36°41' W 008°52'1617.6
2015-Apr-12 03:34N 36°36' W 008°33'14717.5
2015-Apr-11 19:07N 35°58' W 005°36'1017.3
2015-Apr-11 18:34N 36°00' W 005°24'21717.7
2015-Apr-11 06:18N 37°10' W 001°09'1317.4
2015-Apr-11 05:33N 37°19' W 000°57'1818.2
2015-Apr-11 04:33N 37°31' W 000°39'1817.9
2015-Apr-11 03:34N 37°45' W 000°26'1918.4
2015-Apr-11 02:33N 38°00' W 000°13'1818.5
2015-Apr-11 01:33N 38°16' E 000°00'1918.0
2015-Apr-11 00:31N 38°31' E 000°13'2115.5
2015-Apr-10 23:09N 38°52' E 000°16'1118.2
2015-Apr-10 22:33N 39°01' E 000°08'3216.2
2015-Apr-10 20:33N 39°26' W 000°18'0 0.0
2015-Apr-10 19:31N 39°26' W 000°18'0 0.0
2015-Apr-10 18:31N 39°26' W 000°18'0 0.0
2015-Apr-10 17:31N 39°26' W 000°18'0 0.0
2015-Apr-10 16:31N 39°26' W 000°18'0 0.0
2015-Apr-10 15:31N 39°26' W 000°18'0 0.0
2015-Apr-10 14:31N 39°26' W 000°18'0 0.0
2015-Apr-10 13:31N 39°26' W 000°18'0 0.0
2015-Apr-10 12:31N 39°26' W 000°18'0 0.0
2015-Apr-10 11:31N 39°26' W 000°18'0 0.0
2015-Apr-10 10:31N 39°26' W 000°18'0 0.0
2015-Apr-10 09:31N 39°26' W 000°18'0 0.0
2015-Apr-10 08:31N 39°26' W 000°18'0 0.0
2015-Apr-10 07:31N 39°26' W 000°18'0 0.0
2015-Apr-10 06:31N 39°26' W 000°18'0 0.0
2015-Apr-10 05:31N 39°26' W 000°18'0 0.0
2015-Apr-10 04:25N 39°26' W 000°18'0 0.0
2015-Apr-10 03:31N 39°26' W 000°18'0 0.2
2015-Apr-10 02:33N 39°26' W 000°18'7515.0
2015-Apr-09 21:33N 39°13' E 001°18'1515.4
2015-Apr-09 20:33N 39°11' E 001°37'1515.0
2015-Apr-09 19:33N 39°06' E 001°55'3 3.3
2015-Apr-09 18:33N 39°09' E 001°55'1616.0
2015-Apr-09 17:33N 39°07' E 002°16'1616.3
2015-Apr-09 16:33N 39°04' E 002°36'1616.2
2015-Apr-09 15:33N 39°01' E 002°57'1616.1
2015-Apr-09 14:34N 38°57' E 003°17'  

Dump ship's entire track history